MET'MAP v2.0
soon released !

Expected late october,
this new version will be
more efficient, smarter,
and hosted on a brand new
server x3 powerfull...
...and still free !


Not compatible ?
Try the mobile version !

LOG IN : | Subscribe | Disclaimer | Who is Orbifly ? |
ICAO code :
Legend : VFR Marginal VFR IFR Intensive IFR Very Intensive IFR
Visi :
Ceiling :
>= 8 km
>= 3000ft
5 to 8 km
1000 to 3000 ft
1500m to 5 km
500 to 1000 ft
800 to 1500m
200 to 500 ft
< 800m
< 200 ft

METAR - LOWK Klagenfurt - 21 Oct 2020 00:47 UTC - Data Source NOAA   


- Airport Elevation : 1470 ft
- IATA code : KLU
- No reported NOTAMs.


LOWK - Klagenfurt

Latest METAR recorded : 2015/08/11 07:50 LOWK 110750Z VRB01KT 9999 FEW060 22/14 Q1017 NOSIG
TAF TAF LOWK
Valid from the 20 at 18:00 until the 21 at 18:00 UTC


201715Z 2018/2118 VRB02KT 9999 SCT040 TX16/2114Z TN04/2104Z
TEMPO 2020/2108 0800 BCFG
BECMG 2021/2023 BKN005
TEMPO 2023/2104 BKN002
BECMG 2107/2110 FEW030

Source NOAA


MET'MAP, your aeronautical weather chart ! - Copyright ORBIFLY December 2007

Programming & Development : Alexandra Zaïnal
Co-Developer : Marc-Olivier Méhu
Technical & hardware support : Manuel Goepfert
Concept & Financing : Baudouin d'Aumeries